Time;durP1;ratioP1;P1;durP2;ratioP2;P2;SDS_P1;SDS_P2;PMS_P1;PMS_P2;Temp;Humidity;BMP_temperature;BMP_pressure;BME280_temperature;BME280_humidity;BME280_pressure;Samples;Min_cycle;Max_cycle;Signal;HPM_P1;HPM_P2
2022/06/10 00:02:05;;;;;;;5.28;3.38;;;15.20;99.90;15.30;100799.00;;;;4952314;28;92832;-67
2022/06/10 00:04:32;;;;;;;4.25;3.33;;;15.20;99.90;15.30;100804.00;;;;4951497;28;99971;-68
2022/06/10 00:06:58;;;;;;;3.25;2.50;;;15.20;99.90;15.30;100806.00;;;;4952684;28;93014;-67
2022/06/10 00:09:24;;;;;;;5.20;3.00;;;15.20;99.90;15.30;100806.00;;;;4953100;28;93048;-67
2022/06/10 00:11:50;;;;;;;3.38;2.72;;;15.20;99.90;15.30;100815.00;;;;4952122;28;108068;-67
2022/06/10 00:14:15;;;;;;;3.47;2.72;;;15.20;99.90;15.40;100816.00;;;;4951653;28;120187;-67
2022/06/10 00:16:41;;;;;;;3.60;2.63;;;15.30;99.90;15.40;100816.00;;;;4951270;28;94168;-67
2022/06/10 00:19:07;;;;;;;6.90;2.67;;;15.30;99.90;15.40;100819.00;;;;4951419;28;109760;-67
2022/06/10 00:21:33;;;;;;;2.83;2.28;;;15.30;99.90;15.40;100828.00;;;;4951117;28;108268;-68
2022/06/10 00:23:58;;;;;;;2.63;2.42;;;15.40;99.90;15.40;100830.00;;;;4965625;28;121544;-67
2022/06/10 00:26:24;;;;;;;3.25;2.20;;;15.40;99.90;15.50;100830.00;;;;4950582;28;117475;-67
2022/06/10 00:28:50;;;;;;;4.35;2.63;;;15.40;99.90;15.50;100826.00;;;;4951183;28;92936;-67
2022/06/10 00:31:17;;;;;;;5.35;2.53;;;15.40;99.90;15.50;100839.00;;;;4951289;28;107743;-67
2022/06/10 00:33:43;;;;;;;3.25;2.92;;;15.40;99.90;15.60;100830.00;;;;4951967;28;93233;-67
2022/06/10 00:36:10;;;;;;;2.33;2.13;;;15.50;99.90;15.60;100836.00;;;;4951626;28;109734;-67
2022/06/10 00:38:36;;;;;;;7.88;3.22;;;15.50;99.90;15.60;100844.00;;;;4966754;28;92194;-67
2022/06/10 00:41:04;;;;;;;2.88;2.30;;;15.50;99.90;15.60;100844.00;;;;4951509;28;103340;-67
2022/06/10 00:43:33;;;;;;;3.28;2.97;;;15.50;99.90;15.60;100839.00;;;;4950976;28;94180;-67
2022/06/10 00:46:33;;;;;;;7.65;2.78;;;15.50;99.90;15.60;100850.00;;;;4952265;28;110074;-67
2022/06/10 00:49:05;;;;;;;2.47;2.10;;;15.60;99.90;15.60;100852.00;;;;4954617;28;103051;-67
2022/06/10 00:52:03;;;;;;;2.42;2.20;;;15.60;99.90;15.60;100848.00;;;;4946257;28;92807;-67
2022/06/10 00:54:42;;;;;;;3.67;2.10;;;15.50;99.90;15.60;100859.00;;;;4940269;28;95098;-67
2022/06/10 00:57:22;;;;;;;3.25;2.45;;;15.50;99.90;15.60;100853.00;;;;4969759;28;93992;-67
2022/06/10 01:00:03;;;;;;;6.72;2.72;;;15.50;99.90;15.50;100857.00;;;;4933644;28;102726;-67
2022/06/10 01:02:31;;;;;;;4.20;3.17;;;15.50;99.90;15.50;100856.00;;;;4933323;28;93135;-67
2022/06/10 01:04:59;;;;;;;3.42;2.55;;;15.40;99.90;15.50;100873.00;;;;4954863;28;93208;-67
2022/06/10 01:07:33;;;;;;;2.97;2.67;;;15.40;99.90;15.40;100868.00;;;;4954356;28;93546;-67
2022/06/10 01:10:02;;;;;;;3.63;2.78;;;15.40;99.90;15.40;100870.00;;;;4969510;28;101405;-67
2022/06/10 01:12:56;;;;;;;2.72;2.33;;;15.30;99.90;15.40;100870.00;;;;4969074;28;93841;-67
2022/06/10 01:15:56;;;;;;;2.42;2.20;;;15.30;99.90;15.30;100877.00;;;;4937817;28;92911;-67
2022/06/10 01:18:38;;;;;;;3.35;2.15;;;15.30;99.90;15.30;100873.00;;;;4927192;28;110075;-67
2022/06/10 01:21:38;;;;;;;2.47;2.10;;;15.20;99.90;15.20;100882.00;;;;4969269;28;103706;-67
2022/06/10 01:24:51;;;;;;;3.28;2.08;;;15.20;99.90;15.10;100878.00;;;;4954360;28;92911;-67
2022/06/10 01:27:59;;;;;;;4.60;3.47;;;15.10;99.90;15.10;100883.00;;;;4954218;28;93082;-67
2022/06/10 01:30:54;;;;;;;3.33;1.92;;;15.10;99.90;15.00;100889.00;;;;4928820;28;92921;-67
2022/06/10 01:34:03;;;;;;;3.22;1.58;;;15.00;99.90;15.00;100889.00;;;;4916208;28;92179;-67
2022/06/10 01:36:43;;;;;;;2.53;2.22;;;15.00;99.90;15.00;100888.00;;;;4935281;28;93022;-66
2022/06/10 01:39:43;;;;;;;3.15;1.83;;;14.90;99.90;14.90;100895.00;;;;4923416;28;118287;-68
2022/06/10 01:42:24;;;;;;;2.80;2.17;;;14.90;99.90;14.90;100899.00;;;;4928915;28;93989;-68
2022/06/10 01:45:29;;;;;;;3.28;1.90;;;14.80;99.90;14.80;100909.00;;;;4916625;28;97101;-69
2022/06/10 01:48:21;;;;;;;2.25;2.13;;;14.80;99.90;14.70;100908.00;;;;4915980;28;93000;-68
2022/06/10 01:50:58;;;;;;;6.18;2.20;;;14.70;99.90;14.70;100914.00;;;;4929862;28;107924;-68
2022/06/10 01:53:29;;;;;;;2.25;1.98;;;14.70;99.90;14.70;100916.00;;;;4915185;28;117233;-67
2022/06/10 01:56:21;;;;;;;2.28;2.08;;;14.70;99.90;14.60;100905.00;;;;4916809;28;92869;-67
2022/06/10 01:58:58;;;;;;;3.05;2.53;;;14.60;99.90;14.60;100917.00;;;;4933761;28;93050;-67
2022/06/10 02:01:32;;;;;;;2.60;2.20;;;14.60;99.90;14.50;100910.00;;;;4928117;28;115048;-67
2022/06/10 02:04:14;;;;;;;2.92;2.25;;;14.50;99.90;14.50;100917.00;;;;4923649;28;93178;-67
2022/06/10 02:07:03;;;;;;;2.08;1.75;;;14.50;99.90;14.40;100926.00;;;;4921819;28;92883;-67
2022/06/10 02:09:36;;;;;;;1.80;1.70;;;14.40;99.90;14.40;100932.00;;;;4915583;28;94155;-67
2022/06/10 02:12:11;;;;;;;1.80;1.70;;;14.40;99.90;14.40;100930.00;;;;4933309;28;112806;-67
2022/06/10 02:14:49;;;;;;;2.55;2.22;;;14.40;99.90;14.30;100943.00;;;;4921141;28;92927;-67
2022/06/10 02:17:17;;;;;;;2.93;1.50;;;14.30;99.90;14.30;100939.00;;;;4916134;28;93319;-68
2022/06/10 02:19:49;;;;;;;2.55;2.35;;;14.20;99.90;14.20;100951.00;;;;4933773;28;98562;-67
2022/06/10 02:22:31;;;;;;;2.38;1.95;;;14.20;99.90;14.20;100956.00;;;;4915633;28;104491;-67
2022/06/10 02:25:05;;;;;;;4.77;1.93;;;14.20;99.90;14.20;100963.00;;;;4916225;28;93482;-68
2022/06/10 02:27:37;;;;;;;2.10;1.90;;;14.10;99.90;14.10;100958.00;;;;4915780;28;92122;-67
2022/06/10 02:30:12;;;;;;;5.32;2.03;;;14.10;99.90;14.00;100963.00;;;;4932452;28;92864;-67
2022/06/10 02:32:42;;;;;;;3.40;1.97;;;14.00;99.90;14.00;100965.00;;;;4916154;28;93015;-67
2022/06/10 02:35:11;;;;;;;3.23;2.23;;;14.00;99.90;13.90;100975.00;;;;4933667;28;93983;-67
2022/06/10 02:38:05;;;;;;;2.03;1.83;;;13.90;99.90;13.80;100971.00;;;;4934271;28;92724;-67
2022/06/10 02:40:52;;;;;;;2.27;2.00;;;13.90;99.90;13.80;100970.00;;;;4936367;28;92805;-67
2022/06/10 02:43:34;;;;;;;2.03;1.77;;;13.80;99.90;13.70;100978.00;;;;4917586;28;117319;-67
2022/06/10 02:46:16;;;;;;;1.30;1.20;;;13.70;99.90;13.70;100985.00;;;;4934514;28;113729;-68
2022/06/10 02:48:58;;;;;;;2.33;1.70;;;13.70;99.90;13.60;100993.00;;;;4952533;28;102177;-68
2022/06/10 02:51:24;;;;;;;2.03;1.60;;;13.70;99.90;13.60;100980.00;;;;4957025;28;92740;-68
2022/06/10 02:53:50;;;;;;;3.70;2.30;;;13.60;99.90;13.50;100990.00;;;;4972701;28;123177;-68
2022/06/10 02:56:23;;;;;;;3.57;2.50;;;13.50;99.90;13.50;100993.00;;;;4972702;28;92772;-67
2022/06/10 03:02:19;;;;;;;2.30;1.80;;;13.40;99.90;13.30;101010.00;;;;4934727;28;93889;-67
2022/06/10 03:05:08;;;;;;;4.07;2.03;;;13.40;99.90;13.30;101000.00;;;;4932648;28;93238;-67
2022/06/10 03:07:54;;;;;;;4.50;3.00;;;13.30;99.90;13.20;101013.00;;;;4952438;28;93071;-68
2022/06/10 03:10:44;;;;;;;2.00;1.90;;;13.20;99.90;13.10;101022.00;;;;4933427;28;92746;-68
2022/06/10 03:13:54;;;;;;;3.20;2.43;;;13.20;99.90;13.00;101018.00;;;;4952833;28;92881;-67
2022/06/10 03:16:53;;;;;;;3.10;2.53;;;13.10;99.90;13.00;101028.00;;;;4952779;28;92709;-67
2022/06/10 03:19:49;;;;;;;3.10;1.87;;;13.10;99.90;12.90;101024.00;;;;4933944;28;93148;-68
2022/06/10 03:22:38;;;;;;;2.30;2.10;;;13.00;99.90;12.90;101026.00;;;;4953459;28;92105;-67
2022/06/10 03:25:32;;;;;;;8.47;2.53;;;12.90;99.90;12.80;101024.00;;;;4932218;28;92946;-68
2022/06/10 03:28:22;;;;;;;2.67;2.00;;;12.90;99.90;12.80;101024.00;;;;4933231;28;94840;-67
2022/06/10 03:31:20;;;;;;;3.03;2.47;;;12.80;99.90;12.70;101037.00;;;;4952253;28;93914;-68
2022/06/10 03:34:07;;;;;;;2.67;2.43;;;12.80;99.90;12.70;101031.00;;;;4941183;28;93488;-68
2022/06/10 03:36:33;;;;;;;2.57;2.20;;;12.80;99.90;12.80;101042.00;;;;4934506;28;92878;-68
2022/06/10 03:39:01;;;;;;;3.33;2.03;;;12.70;99.90;12.80;101039.00;;;;4951698;28;118141;-68
2022/06/10 03:42:22;;;;;;;4.57;2.73;;;12.80;99.90;12.70;101043.00;;;;4952916;28;93366;-67
2022/06/10 03:44:54;;;;;;;4.63;2.73;;;12.80;99.90;12.80;101059.00;;;;4912595;28;92852;-67
2022/06/10 03:47:33;;;;;;;3.00;2.73;;;12.80;99.90;12.80;101059.00;;;;4913873;28;92924;-68
2022/06/10 03:50:10;;;;;;;2.80;2.53;;;12.80;99.90;12.80;101064.00;;;;4952511;28;92430;-67
2022/06/10 03:52:38;;;;;;;3.17;2.90;;;12.80;99.90;12.90;101072.00;;;;4946783;28;92917;-68
2022/06/10 03:55:08;;;;;;;2.77;2.57;;;12.80;99.90;12.90;101085.00;;;;4932597;28;102368;-68
2022/06/10 03:57:34;;;;;;;4.47;2.77;;;12.90;99.90;13.00;101085.00;;;;4932546;28;93858;-66
2022/06/10 04:00:01;;;;;;;4.03;2.80;;;12.90;99.90;13.00;101086.00;;;;4951882;28;93826;-68
2022/06/10 04:02:26;;;;;;;2.67;2.20;;;13.00;99.90;13.10;101078.00;;;;4951254;28;93196;-67
2022/06/10 04:04:52;;;;;;;3.80;2.73;;;13.00;99.90;13.20;101081.00;;;;4967853;28;93045;-66
2022/06/10 04:07:20;;;;;;;6.97;2.70;;;13.10;99.90;13.20;101099.00;;;;4950874;28;108553;-66
2022/06/10 04:09:48;;;;;;;5.23;3.23;;;13.20;99.90;13.30;101093.00;;;;4951392;28;122107;-67
2022/06/10 04:12:15;;;;;;;3.70;2.70;;;13.20;99.90;13.40;101089.00;;;;4952092;28;93007;-67
2022/06/10 04:14:42;;;;;;;2.80;2.43;;;13.30;99.90;13.50;101086.00;;;;4953046;28;92061;-67
2022/06/10 04:17:09;;;;;;;2.50;2.30;;;13.40;99.90;13.60;101101.00;;;;4950819;28;100960;-67
2022/06/10 04:19:35;;;;;;;2.70;2.50;;;13.50;99.90;13.70;101101.00;;;;4933446;28;93156;-67
2022/06/10 04:22:01;;;;;;;5.37;3.77;;;13.60;99.90;13.80;101101.00;;;;4953146;28;122762;-67
2022/06/10 04:24:27;;;;;;;3.97;3.13;;;13.70;99.90;13.90;101102.00;;;;4954918;28;98716;-67
2022/06/10 04:26:53;;;;;;;2.87;2.50;;;13.70;99.90;14.00;101099.00;;;;4955828;28;93044;-67
2022/06/10 04:29:19;;;;;;;2.30;2.10;;;13.80;99.90;14.10;101104.00;;;;4953803;28;123985;-67
2022/06/10 04:31:45;;;;;;;3.30;2.00;;;13.90;99.90;14.20;101105.00;;;;4952067;28;93111;-68
2022/06/10 04:34:11;;;;;;;3.50;2.63;;;14.10;99.90;14.30;101103.00;;;;4960622;28;111945;-68
2022/06/10 04:36:37;;;;;;;3.87;2.30;;;14.20;99.90;14.40;101095.00;;;;4964922;28;92713;-67
2022/06/10 04:39:03;;;;;;;3.63;1.90;;;14.30;99.90;14.50;101105.00;;;;4964099;28;105185;-67
2022/06/10 04:41:39;;;;;;;2.70;1.73;;;14.40;99.90;14.70;101116.00;;;;4966718;28;116890;-67
2022/06/10 04:44:06;;;;;;;2.42;2.00;;;14.50;99.90;14.80;101120.00;;;;4966699;28;110226;-67
2022/06/10 04:46:36;;;;;;;4.97;2.10;;;14.60;99.90;15.00;101122.00;;;;4967547;28;93902;-67
2022/06/10 04:49:03;;;;;;;1.83;1.73;;;14.80;99.90;15.10;101129.00;;;;4955941;28;93215;-67
2022/06/10 04:51:29;;;;;;;1.92;1.75;;;14.90;99.90;15.20;101132.00;;;;4965135;28;94283;-67
2022/06/10 04:53:55;;;;;;;2.63;1.60;;;15.10;99.90;15.40;101129.00;;;;4962102;28;112082;-67
2022/06/10 04:56:20;;;;;;;3.38;1.85;;;15.20;99.90;15.50;101137.00;;;;4965481;28;92965;-67
2022/06/10 04:58:46;;;;;;;3.58;2.22;;;15.40;99.90;15.70;101145.00;;;;4947362;28;122624;-67
2022/06/10 05:01:12;;;;;;;2.03;1.58;;;15.60;99.90;15.90;101148.00;;;;4974339;28;104563;-67
2022/06/10 05:03:38;;;;;;;4.78;1.85;;;15.70;99.90;16.00;101156.00;;;;4962480;28;92554;-67
2022/06/10 05:06:04;;;;;;;3.30;1.83;;;15.80;99.90;16.20;101148.00;;;;4954584;28;109219;-68
2022/06/10 05:08:30;;;;;;;1.67;1.58;;;16.00;99.90;16.30;101150.00;;;;4954172;28;102289;-68
2022/06/10 05:10:56;;;;;;;2.72;1.67;;;16.20;99.90;16.50;101147.00;;;;4968482;28;122147;-68
2022/06/10 05:13:22;;;;;;;4.35;0.95;;;16.30;99.90;16.60;101159.00;;;;4953132;28;109411;-66
2022/06/10 05:15:49;;;;;;;1.17;1.08;;;16.50;99.90;16.80;101157.00;;;;4954766;28;92898;-66
2022/06/10 05:18:21;;;;;;;1.83;1.35;;;16.60;99.90;16.90;101161.00;;;;4968236;28;100154;-66
2022/06/10 05:20:48;;;;;;;1.33;1.23;;;16.80;99.90;17.10;101162.00;;;;4954256;28;93935;-66
2022/06/10 05:23:19;;;;;;;1.42;1.27;;;16.90;99.90;17.30;101168.00;;;;4935599;28;92871;-66
2022/06/10 05:25:45;;;;;;;1.45;1.00;;;17.10;99.90;17.40;101167.00;;;;4936404;28;92894;-66
2022/06/10 05:28:12;;;;;;;1.08;1.08;;;17.20;99.90;17.60;101174.00;;;;4954302;28;92383;-66
2022/06/10 05:30:39;;;;;;;3.45;1.52;;;17.40;99.90;17.70;101183.00;;;;4954627;28;92939;-66
2022/06/10 05:33:08;;;;;;;3.15;1.42;;;17.50;99.90;17.80;101180.00;;;;4953524;28;94140;-66
2022/06/10 05:35:35;;;;;;;2.72;1.10;;;17.70;99.90;17.90;101186.00;;;;4953787;28;95323;-67
2022/06/10 05:38:02;;;;;;;1.30;1.20;;;17.80;99.90;18.00;101188.00;;;;4953779;28;94233;-67
2022/06/10 05:40:30;;;;;;;1.50;0.95;;;17.80;99.90;18.20;101184.00;;;;4953630;28;110381;-66
2022/06/10 05:42:56;;;;;;;1.23;0.93;;;18.00;99.90;18.30;101192.00;;;;4954042;28;92852;-67
2022/06/10 05:45:29;;;;;;;1.30;1.20;;;18.20;99.90;18.50;101191.00;;;;4954979;28;92931;-67
2022/06/10 05:48:00;;;;;;;1.08;0.85;;;18.30;99.90;18.60;101181.00;;;;4952742;28;123280;-67
2022/06/10 05:50:37;;;;;;;0.90;0.88;;;18.40;99.90;18.70;101181.00;;;;4954311;28;92844;-67
2022/06/10 05:53:07;;;;;;;2.05;1.10;;;18.50;99.90;18.80;101198.00;;;;4963332;28;92154;-69
2022/06/10 05:55:34;;;;;;;1.40;1.13;;;18.60;99.90;18.90;101193.00;;;;4955008;28;93161;-66
2022/06/10 05:58:00;;;;;;;1.55;1.10;;;18.70;99.90;19.10;101190.00;;;;4935589;28;93480;-66
2022/06/10 06:00:30;;;;;;;2.50;1.33;;;18.90;99.90;19.20;101189.00;;;;4952631;28;121237;-67
2022/06/10 06:02:58;;;;;;;2.78;1.20;;;19.00;99.90;19.40;101201.00;;;;4953350;28;92979;-67
2022/06/10 06:05:24;;;;;;;2.97;1.30;;;19.20;99.90;19.60;101202.00;;;;4954239;28;92689;-68
2022/06/10 06:07:51;;;;;;;0.82;0.73;;;19.40;99.90;19.70;101198.00;;;;4954143;28;93667;-67
2022/06/10 06:10:22;;;;;;;4.13;0.95;;;19.50;99.90;19.90;101194.00;;;;4953517;28;104059;-68
2022/06/10 06:12:48;;;;;;;1.95;1.10;;;19.70;99.90;20.00;101200.00;;;;4953642;28;92833;-67
2022/06/10 06:15:14;;;;;;;2.45;1.02;;;19.80;99.90;20.20;101199.00;;;;4953905;28;107478;-68
2022/06/10 06:17:41;;;;;;;0.50;0.50;;;20.00;99.90;20.40;101192.00;;;;4953703;28;92880;-68
2022/06/10 06:20:09;;;;;;;0.95;0.52;;;20.20;99.90;20.60;101212.00;;;;4968712;28;92845;-67
2022/06/10 06:22:35;;;;;;;0.95;0.90;;;20.40;99.90;20.80;101208.00;;;;4967904;28;92781;-69
2022/06/10 06:25:01;;;;;;;0.65;0.65;;;20.60;99.90;21.00;101217.00;;;;4952395;28;108229;-69
2022/06/10 06:27:27;;;;;;;0.60;0.60;;;20.80;99.90;21.30;101211.00;;;;4966626;28;112189;-68
2022/06/10 06:29:53;;;;;;;1.60;0.98;;;21.00;99.80;21.50;101213.00;;;;4951919;28;121011;-68
2022/06/10 06:32:18;;;;;;;2.35;0.82;;;21.30;99.10;21.70;101219.00;;;;4954007;28;93104;-67
2022/06/10 06:34:44;;;;;;;0.57;0.50;;;21.50;98.00;21.90;101218.00;;;;4953647;28;92809;-67
2022/06/10 06:37:14;;;;;;;1.75;0.80;;;21.70;97.00;22.10;101220.00;;;;4953094;28;108317;-67
2022/06/10 06:39:41;;;;;;;0.55;0.47;;;21.80;95.60;22.20;101220.00;;;;4953309;28;93961;-67
2022/06/10 06:42:09;;;;;;;2.33;0.73;;;22.00;94.90;22.40;101223.00;;;;4953893;28;92417;-68
2022/06/10 06:44:34;;;;;;;0.63;0.63;;;22.40;93.90;22.60;101231.00;;;;4954091;28;93181;-69
2022/06/10 06:47:00;;;;;;;0.45;0.38;;;22.40;92.80;22.70;101238.00;;;;4952565;28;123086;-67
2022/06/10 06:49:28;;;;;;;3.55;0.90;;;22.50;91.30;22.90;101231.00;;;;4948054;28;122751;-68
2022/06/10 06:51:54;;;;;;;0.43;0.40;;;22.60;90.50;23.00;101232.00;;;;4949468;28;92770;-67
2022/06/10 06:54:20;;;;;;;0.90;0.63;;;22.80;87.90;23.20;101235.00;;;;4972678;28;101332;-67
2022/06/10 06:56:47;;;;;;;2.25;0.60;;;22.90;86.90;23.30;101232.00;;;;4972931;28;93690;-68
2022/06/10 06:59:13;;;;;;;0.30;0.30;;;23.00;84.60;23.40;101237.00;;;;4971768;28;121912;-69
2022/06/10 07:01:39;;;;;;;1.88;0.60;;;23.20;81.30;23.50;101246.00;;;;4973370;28;92702;-68
2022/06/10 07:04:05;;;;;;;3.40;0.40;;;23.20;79.80;23.60;101256.00;;;;4972028;28;108008;-67
2022/06/10 07:06:34;;;;;;;1.55;0.90;;;23.30;79.40;23.70;101245.00;;;;4972783;28;113013;-67
2022/06/10 07:09:15;;;;;;;0.60;0.60;;;23.50;75.80;23.80;101254.00;;;;4972804;28;92823;-68
2022/06/10 07:11:41;;;;;;;1.73;0.82;;;23.60;75.80;23.90;101254.00;;;;4939090;28;92745;-67
2022/06/10 07:14:07;;;;;;;0.63;0.43;;;23.70;72.90;24.00;101252.00;;;;4972986;28;93883;-67
2022/06/10 07:16:32;;;;;;;1.58;0.80;;;23.80;71.20;24.10;101245.00;;;;4973613;28;93652;-67
2022/06/10 07:18:58;;;;;;;0.40;0.40;;;23.90;70.50;24.20;101245.00;;;;4971872;28;92924;-67
2022/06/10 07:21:24;;;;;;;0.40;0.40;;;24.00;68.90;24.30;101250.00;;;;4973015;28;92805;-68
2022/06/10 07:23:49;;;;;;;0.65;0.55;;;24.10;68.50;24.50;101245.00;;;;4971476;28;109343;-66
2022/06/10 07:26:16;;;;;;;0.70;0.70;;;24.30;68.20;24.80;101250.00;;;;4972760;28;94015;-67
2022/06/10 07:28:41;;;;;;;6.13;0.65;;;24.40;67.30;24.90;101255.00;;;;4971413;28;113148;-68
2022/06/10 07:31:07;;;;;;;0.32;0.32;;;24.70;66.50;25.10;101249.00;;;;4973340;28;92317;-68
2022/06/10 07:33:35;;;;;;;3.03;0.43;;;24.90;65.20;25.30;101246.00;;;;4972339;28;93473;-68
2022/06/10 07:36:04;;;;;;;3.63;1.00;;;25.00;64.60;25.50;101250.00;;;;4972555;28;94049;-67
2022/06/10 07:38:31;;;;;;;1.40;0.95;;;25.20;63.40;25.70;101256.00;;;;4971884;28;93836;-68
2022/06/10 07:43:43;;;;;;;0.75;0.68;;;25.60;61.20;25.90;101258.00;;;;4963334;28;92550;-68
2022/06/10 07:46:13;;;;;;;0.55;0.55;;;25.70;58.90;25.80;101263.00;;;;4953920;28;93361;-68
2022/06/10 07:48:38;;;;;;;0.32;0.28;;;25.70;57.50;25.70;101259.00;;;;4945375;28;94055;-66
2022/06/10 07:51:05;;;;;;;3.22;0.57;;;25.60;57.30;25.70;101267.00;;;;4955652;28;110100;-68
2022/06/10 07:53:31;;;;;;;1.33;0.45;;;25.60;57.80;25.80;101259.00;;;;4963872;28;110031;-66
2022/06/10 07:55:57;;;;;;;0.80;0.60;;;25.60;57.50;25.80;101260.00;;;;4954579;28;120470;-67
2022/06/10 07:58:28;;;;;;;1.98;0.85;;;25.60;56.40;25.80;101264.00;;;;4957929;28;120344;-68
2022/06/10 08:00:54;;;;;;;0.47;0.47;;;25.70;56.60;26.00;101271.00;;;;4958787;28;92860;-68
2022/06/10 08:03:20;;;;;;;0.30;0.30;;;25.70;56.80;26.10;101263.00;;;;4957626;28;108781;-70
2022/06/10 08:05:46;;;;;;;0.65;0.50;;;25.90;56.80;26.30;101258.00;;;;4957190;28;122880;-71
2022/06/10 08:08:18;;;;;;;1.05;0.88;;;26.10;56.40;26.50;101260.00;;;;4957375;28;110644;-72
2022/06/10 08:10:45;;;;;;;0.55;0.50;;;26.20;55.50;26.60;101257.00;;;;4940305;28;92946;-72
2022/06/10 08:13:11;;;;;;;1.85;0.70;;;26.40;55.30;26.70;101249.00;;;;4957749;28;99740;-70
2022/06/10 08:15:45;;;;;;;0.40;0.40;;;26.50;54.50;26.80;101266.00;;;;4939396;28;105004;-70
2022/06/10 08:18:14;;;;;;;1.23;1.13;;;26.60;54.40;26.80;101254.00;;;;4956667;28;114284;-70
2022/06/10 08:23:28;;;;;;;0.63;0.52;;;26.70;53.50;26.90;101256.00;;;;4956751;28;92800;-73
2022/06/10 08:25:57;;;;;;;1.10;0.70;;;26.70;52.00;26.90;101259.00;;;;4923420;28;95195;-70
2022/06/10 08:28:27;;;;;;;2.47;0.80;;;26.80;51.10;26.90;101249.00;;;;4971875;28;93896;-70
2022/06/10 08:30:52;;;;;;;0.50;0.50;;;26.70;50.50;26.60;101259.00;;;;4973262;28;92886;-72
2022/06/10 08:33:19;;;;;;;0.68;0.40;;;26.60;49.90;26.50;101256.00;;;;4972444;28;108105;-70
2022/06/10 08:35:46;;;;;;;1.42;0.55;;;26.50;50.30;26.50;101249.00;;;;4957939;28;106490;-70
2022/06/10 08:38:18;;;;;;;1.05;0.50;;;26.40;50.60;26.60;101258.00;;;;4957396;28;92826;-72
2022/06/10 08:40:47;;;;;;;1.63;0.50;;;26.50;50.90;26.80;101250.00;;;;4923688;28;93271;-70
2022/06/10 08:43:51;;;;;;;1.42;0.77;;;26.50;50.30;26.90;101257.00;;;;4957721;28;94358;-72
2022/06/10 08:47:01;;;;;;;1.60;0.60;;;26.70;50.10;27.10;101253.00;;;;4939653;28;94005;-72
2022/06/10 08:50:00;;;;;;;0.50;0.30;;;26.80;49.90;27.20;101261.00;;;;4938411;28;110770;-71
2022/06/10 08:52:57;;;;;;;0.55;0.55;;;26.90;49.40;27.20;101263.00;;;;4942062;28;92673;-69
2022/06/10 08:56:17;;;;;;;0.20;0.20;;;27.00;49.40;27.40;101261.00;;;;4966549;28;93819;-70
2022/06/10 08:59:08;;;;;;;0.70;0.65;;;27.20;49.70;27.70;101259.00;;;;4914465;28;92993;-70
2022/06/10 09:02:05;;;;;;;3.92;0.85;;;27.30;49.00;27.80;101263.00;;;;4955190;28;93375;-72
2022/06/10 09:04:58;;;;;;;2.20;0.50;;;27.50;48.90;27.70;101259.00;;;;4957529;28;93020;-71
2022/06/10 09:07:32;;;;;;;6.60;0.50;;;27.60;48.00;27.80;101266.00;;;;4955578;28;101641;-72
2022/06/10 09:09:59;;;;;;;0.35;0.20;;;27.60;48.00;27.80;101263.00;;;;4953591;28;115320;-69
2022/06/10 09:13:07;;;;;;;0.40;0.40;;;27.60;47.60;27.90;101261.00;;;;4954293;28;93013;-70
2022/06/10 09:15:46;;;;;;;1.02;0.70;;;27.70;47.10;28.00;101262.00;;;;4955266;28;92185;-71
2022/06/10 09:18:48;;;;;;;0.60;0.50;;;27.70;46.70;28.10;101257.00;;;;4969967;28;92929;-73
2022/06/10 09:22:15;;;;;;;0.77;0.50;;;27.80;46.80;28.30;101260.00;;;;4937961;28;93036;-70
2022/06/10 09:25:10;;;;;;;1.45;0.80;;;28.00;46.50;28.50;101268.00;;;;4924666;28;93934;-73
2022/06/10 09:27:40;;;;;;;0.50;0.50;;;28.10;46.90;28.70;101264.00;;;;4907784;28;93068;-73
2022/06/10 09:30:11;;;;;;;0.98;0.80;;;28.30;46.60;28.80;101264.00;;;;4913843;28;93114;-71
2022/06/10 09:32:59;;;;;;;1.73;0.98;;;28.50;45.60;28.80;101270.00;;;;4934410;28;93429;-70
2022/06/10 09:36:00;;;;;;;3.05;1.02;;;28.50;45.30;28.60;101278.00;;;;4936227;28;114425;-73
2022/06/10 09:38:51;;;;;;;0.52;0.45;;;28.40;44.40;28.40;101281.00;;;;4930820;28;93288;-70
2022/06/10 09:41:33;;;;;;;1.38;0.57;;;28.20;44.20;28.30;101273.00;;;;4954010;28;92611;-70
2022/06/10 09:44:24;;;;;;;0.60;0.60;;;28.10;43.80;28.30;101284.00;;;;4954580;28;93737;-70
2022/06/10 09:46:58;;;;;;;1.48;0.88;;;28.00;44.60;28.50;101289.00;;;;4935362;28;97208;-71
2022/06/10 09:49:42;;;;;;;0.47;0.47;;;28.10;43.60;28.50;101282.00;;;;4954252;28;92997;-72
2022/06/10 09:52:15;;;;;;;1.00;0.50;;;28.20;43.90;28.50;101283.00;;;;4962655;28;108685;-70
2022/06/10 09:55:05;;;;;;;3.22;0.50;;;28.20;43.60;28.30;101285.00;;;;4937390;28;96855;-70
2022/06/10 09:58:03;;;;;;;2.20;0.55;;;28.10;43.70;28.30;101284.00;;;;4951941;28;102461;-73
2022/06/10 10:00:55;;;;;;;0.55;0.55;;;28.00;44.50;28.40;101285.00;;;;4935539;28;101731;-70
2022/06/10 10:03:55;;;;;;;1.02;0.57;;;28.00;44.80;28.40;101277.00;;;;4974887;28;93116;-70
2022/06/10 10:06:43;;;;;;;0.90;0.60;;;28.10;43.90;28.30;101273.00;;;;4962817;28;115487;-70
2022/06/10 10:09:54;;;;;;;0.60;0.55;;;28.00;42.90;28.10;101269.00;;;;4967791;28;93306;-70
2022/06/10 10:12:48;;;;;;;1.00;0.90;;;27.90;42.80;28.30;101260.00;;;;4954672;28;92073;-73
2022/06/10 10:15:36;;;;;;;0.40;0.40;;;27.80;43.80;28.40;101276.00;;;;4936728;28;92923;-72
2022/06/10 10:18:38;;;;;;;1.27;0.77;;;28.00;43.50;28.70;101266.00;;;;4934199;28;93052;-73
2022/06/10 10:21:28;;;;;;;3.33;1.00;;;28.10;43.60;29.10;101272.00;;;;4931507;28;111262;-70
2022/06/10 10:23:56;;;;;;;6.07;0.93;;;28.40;43.80;29.30;101258.00;;;;4967175;28;102064;-70
2022/06/10 10:26:30;;;;;;;0.63;0.60;;;28.70;42.70;29.30;101271.00;;;;4954219;28;92997;-69
2022/06/10 10:29:38;;;;;;;0.85;0.50;;;28.80;42.90;29.30;101272.00;;;;4931570;28;94349;-71
2022/06/10 10:32:20;;;;;;;2.05;0.73;;;28.80;43.30;29.40;101273.00;;;;4948272;28;108225;-70
2022/06/10 10:34:54;;;;;;;0.88;0.70;;;28.90;43.60;29.40;101281.00;;;;4916229;28;92845;-70
2022/06/10 10:37:29;;;;;;;0.40;0.30;;;29.00;43.10;29.20;101275.00;;;;4911883;28;95761;-70
2022/06/10 10:40:19;;;;;;;2.88;0.70;;;28.80;42.80;29.00;101275.00;;;;4932523;28;93006;-72
2022/06/10 10:42:49;;;;;;;0.93;0.55;;;28.70;42.40;28.80;101277.00;;;;4932157;28;114290;-72
2022/06/10 10:45:23;;;;;;;1.15;0.63;;;28.50;43.20;28.80;101288.00;;;;4963153;28;92871;-73
2022/06/10 10:47:59;;;;;;;3.92;0.52;;;28.40;43.50;28.90;101279.00;;;;4946516;28;99705;-70
2022/06/10 10:50:31;;;;;;;3.42;0.52;;;28.40;43.10;29.00;101276.00;;;;4960473;28;97553;-72
2022/06/10 10:52:58;;;;;;;0.80;0.55;;;28.50;42.80;29.20;101270.00;;;;4914239;28;95008;-71
2022/06/10 10:55:55;;;;;;;4.30;1.00;;;28.70;42.60;29.50;101274.00;;;;4930107;28;92715;-73
2022/06/10 10:58:35;;;;;;;1.15;0.50;;;28.90;42.50;29.70;101276.00;;;;4961123;28;99486;-70
2022/06/10 11:01:43;;;;;;;0.77;0.63;;;29.10;42.00;29.80;101276.00;;;;4964168;28;92968;-73
2022/06/10 11:03:55;;;;;;;1.00;0.65;;;29.20;41.70;29.90;101272.00;;;;4944317;28;92919;-70
2022/06/10 11:06:32;;;;;;;0.47;0.47;;;29.30;41.40;30.10;101278.00;;;;4912129;28;91999;-71
2022/06/10 11:09:15;;;;;;;0.40;0.40;;;29.50;42.30;30.20;101272.00;;;;4926022;28;92854;-69
2022/06/10 11:11:42;;;;;;;1.40;0.45;;;29.60;40.70;30.30;101264.00;;;;4932258;28;113734;-72
2022/06/10 11:14:26;;;;;;;0.85;0.80;;;29.70;40.40;30.50;101270.00;;;;4932582;28;93714;-71
2022/06/10 11:17:28;;;;;;;0.68;0.50;;;29.80;40.30;30.40;101271.00;;;;4957457;28;92742;-72
2022/06/10 11:20:34;;;;;;;2.28;1.17;;;29.90;39.40;30.30;101269.00;;;;4929730;28;92864;-70
2022/06/10 11:23:24;;;;;;;0.90;0.50;;;29.90;39.30;30.50;101263.00;;;;4919115;28;92942;-70
2022/06/10 11:26:13;;;;;;;1.30;0.40;;;29.90;39.80;30.40;101265.00;;;;4914745;28;95050;-71
2022/06/10 11:28:42;;;;;;;0.85;0.47;;;29.90;39.00;30.30;101266.00;;;;4928908;28;102823;-70
2022/06/10 11:31:30;;;;;;;0.73;0.52;;;29.80;39.40;30.00;101254.00;;;;4966398;28;93104;-72
2022/06/10 11:33:59;;;;;;;0.40;0.32;;;29.70;38.70;29.70;101258.00;;;;4952348;28;92419;-70